createdAt,value
2022-07-25T00:01:35.248Z,18.10
2022-07-25T00:04:05.489Z,18.10
2022-07-25T00:06:34.690Z,18.10
2022-07-25T00:09:04.078Z,18.06
2022-07-25T00:11:32.987Z,18.00
2022-07-25T00:14:02.102Z,18.00
2022-07-25T00:16:31.184Z,18.00
2022-07-25T00:19:00.273Z,18.00
2022-07-25T00:21:29.473Z,18.00
2022-07-25T00:23:58.469Z,18.00
2022-07-25T00:26:27.360Z,18.00
2022-07-25T00:28:56.253Z,18.00
2022-07-25T00:31:25.082Z,18.00
2022-07-25T00:33:54.078Z,18.00
2022-07-25T00:36:23.028Z,18.00
2022-07-25T00:38:51.920Z,18.00
2022-07-25T00:41:20.812Z,18.00
2022-07-25T00:43:49.600Z,18.00
2022-07-25T00:46:19.440Z,18.00
2022-07-25T00:48:50.205Z,17.94
2022-07-25T00:51:19.757Z,18.00
2022-07-25T00:53:49.057Z,18.00
2022-07-25T00:56:18.258Z,18.00
2022-07-25T00:58:47.355Z,17.90
2022-07-25T01:01:16.508Z,17.90
2022-07-25T01:03:45.443Z,17.80
2022-07-25T01:06:14.440Z,17.76
2022-07-25T01:08:43.738Z,17.66
2022-07-25T01:11:13.051Z,17.60
2022-07-25T01:13:42.342Z,17.50
2022-07-25T01:16:11.262Z,17.50
2022-07-25T01:18:40.533Z,17.50
2022-07-25T01:21:09.322Z,17.50
2022-07-25T01:23:38.318Z,17.46
2022-07-25T01:26:07.311Z,17.50
2022-07-25T01:28:36.305Z,17.40
2022-07-25T01:31:05.457Z,17.40
2022-07-25T01:33:34.498Z,17.40
2022-07-25T01:36:03.596Z,17.40
2022-07-25T01:38:32.589Z,17.40
2022-07-25T01:41:01.377Z,17.40
2022-07-25T01:43:30.275Z,17.40
2022-07-25T01:45:59.094Z,17.40
2022-07-25T01:48:27.989Z,17.32
2022-07-25T01:50:56.850Z,17.30
2022-07-25T01:53:26.145Z,17.32
2022-07-25T01:55:55.446Z,17.30
2022-07-25T01:58:26.780Z,17.30
2022-07-25T02:00:55.996Z,17.30
2022-07-25T02:03:30.633Z,17.30
2022-07-25T02:06:04.122Z,17.30
2022-07-25T02:08:33.322Z,17.20
2022-07-25T02:11:02.215Z,17.20
2022-07-25T02:13:31.307Z,17.18
2022-07-25T02:16:00.608Z,17.14
2022-07-25T02:18:29.909Z,17.20
2022-07-25T02:20:58.698Z,17.14
2022-07-25T02:23:27.587Z,17.10
2022-07-25T02:25:56.379Z,17.10
2022-07-25T02:28:25.371Z,17.14
2022-07-25T02:30:54.575Z,17.10
2022-07-25T02:33:24.064Z,17.10
2022-07-25T02:35:52.967Z,17.00
2022-07-25T02:38:22.000Z,17.00
2022-07-25T02:40:52.990Z,17.00
2022-07-25T02:43:21.793Z,17.00
2022-07-25T02:45:50.837Z,16.90
2022-07-25T02:48:20.190Z,16.90
2022-07-25T02:50:48.979Z,16.90
2022-07-25T02:53:28.937Z,17.00
2022-07-25T02:56:07.246Z,17.00
2022-07-25T02:58:36.646Z,17.00
2022-07-25T03:01:08.752Z,17.04
2022-07-25T03:03:37.950Z,17.10
2022-07-25T03:06:07.110Z,17.10
2022-07-25T03:08:36.007Z,17.10
2022-07-25T03:11:05.202Z,17.10
2022-07-25T03:13:34.091Z,17.10
2022-07-25T03:16:03.298Z,17.10
2022-07-25T03:18:32.183Z,17.00
2022-07-25T03:21:01.283Z,17.00
2022-07-25T03:23:31.358Z,16.98
2022-07-25T03:26:00.291Z,16.90
2022-07-25T03:28:29.386Z,16.90
2022-07-25T03:30:58.485Z,16.90
2022-07-25T03:33:27.374Z,16.88
2022-07-25T03:35:56.884Z,16.90
2022-07-25T03:38:25.773Z,16.90
2022-07-25T03:40:54.666Z,16.90
2022-07-25T03:43:23.453Z,16.90
2022-07-25T03:45:52.296Z,17.00
2022-07-25T03:48:21.236Z,17.10
2022-07-25T03:50:50.128Z,17.20
2022-07-25T03:53:19.021Z,17.30
2022-07-25T03:55:47.912Z,17.40
2022-07-25T03:58:16.805Z,17.50
2022-07-25T04:00:45.763Z,17.70
2022-07-25T04:03:15.897Z,17.80
2022-07-25T04:05:47.603Z,18.00
2022-07-25T04:08:16.775Z,18.10
2022-07-25T04:10:45.561Z,18.30
2022-07-25T04:13:14.455Z,18.50
2022-07-25T04:15:43.447Z,18.60
2022-07-25T04:18:16.939Z,18.70
2022-07-25T04:20:52.086Z,18.90
2022-07-25T04:23:20.976Z,19.00
2022-07-25T04:25:50.072Z,19.10
2022-07-25T04:28:19.066Z,19.30
2022-07-25T04:30:48.163Z,19.40
2022-07-25T04:33:18.013Z,19.60
2022-07-25T04:35:46.971Z,19.70
2022-07-25T04:38:16.069Z,19.80
2022-07-25T04:40:45.163Z,19.90
2022-07-25T04:43:14.107Z,20.14
2022-07-25T04:45:43.086Z,20.54
2022-07-25T04:48:12.146Z,20.90
2022-07-25T04:50:41.039Z,21.16
2022-07-25T04:53:09.831Z,21.40
2022-07-25T04:55:39.337Z,21.60
2022-07-25T04:58:08.735Z,22.00
2022-07-25T05:00:38.088Z,22.26
2022-07-25T05:03:07.246Z,22.60
2022-07-25T05:05:36.228Z,22.84
2022-07-25T05:08:05.714Z,22.90
2022-07-25T05:10:34.625Z,23.00
2022-07-25T05:13:03.416Z,23.10
2022-07-25T05:15:32.408Z,23.20
2022-07-25T05:18:01.302Z,23.32
2022-07-25T05:20:30.397Z,23.50
2022-07-25T05:22:59.189Z,23.70
2022-07-25T05:25:28.081Z,23.64
2022-07-25T05:27:59.020Z,24.00
2022-07-25T05:30:28.219Z,24.44
2022-07-25T05:32:57.318Z,25.00
2022-07-25T05:35:26.205Z,25.60
2022-07-25T05:37:54.997Z,25.70
2022-07-25T05:40:24.655Z,26.10
2022-07-25T05:42:53.392Z,26.10
2022-07-25T05:45:22.560Z,26.50
2022-07-25T05:47:51.379Z,26.92
2022-07-25T05:50:20.270Z,26.90
2022-07-25T05:52:49.164Z,26.70
2022-07-25T05:55:18.361Z,26.60
2022-07-25T05:57:47.150Z,26.66
2022-07-25T06:00:16.641Z,27.24
2022-07-25T06:02:45.549Z,27.90
2022-07-25T06:05:14.644Z,28.40
2022-07-25T06:07:43.537Z,28.86
2022-07-25T06:10:12.529Z,29.14
2022-07-25T06:12:41.438Z,29.80
2022-07-25T06:15:12.662Z,30.40
2022-07-25T06:17:51.699Z,31.06
2022-07-25T06:20:21.101Z,31.46
2022-07-25T06:22:50.020Z,32.00
2022-07-25T06:25:19.367Z,32.30
2022-07-25T06:27:48.185Z,32.50
2022-07-25T06:30:20.111Z,32.98
2022-07-25T06:32:50.512Z,33.50
2022-07-25T06:35:19.963Z,33.62
2022-07-25T06:37:49.898Z,33.62
2022-07-25T06:40:19.097Z,34.00
2022-07-25T06:42:48.472Z,34.32
2022-07-25T06:45:18.112Z,34.70
2022-07-25T06:47:47.208Z,34.90
2022-07-25T06:50:21.314Z,35.06
2022-07-25T06:52:50.624Z,35.06
2022-07-25T06:55:19.413Z,35.64
2022-07-25T06:57:48.303Z,36.00
2022-07-25T07:00:17.764Z,36.30
2022-07-25T07:03:01.620Z,36.72
2022-07-25T07:05:34.227Z,37.20
2022-07-25T07:08:04.252Z,37.50
2022-07-25T07:10:33.244Z,37.58
2022-07-25T07:13:09.788Z,37.60
2022-07-25T07:15:45.460Z,37.68
2022-07-25T07:18:14.456Z,38.00
2022-07-25T07:20:44.371Z,38.42
2022-07-25T07:23:16.791Z,38.80
2022-07-25T07:25:47.674Z,39.10
2022-07-25T07:28:17.292Z,39.30
2022-07-25T07:33:35.576Z,39.30
2022-07-25T07:36:05.163Z,39.40
2022-07-25T07:38:34.829Z,39.70
2022-07-25T07:41:03.973Z,39.60
2022-07-25T07:43:32.964Z,39.40
2022-07-25T07:46:02.253Z,39.60
2022-07-25T07:48:32.405Z,39.70
2022-07-25T07:51:02.970Z,39.50
2022-07-25T07:53:51.268Z,39.40
2022-07-25T07:56:20.464Z,39.38
2022-07-25T07:58:49.661Z,39.30
2022-07-25T08:01:18.515Z,39.26
2022-07-25T08:03:47.445Z,39.40
2022-07-25T08:06:16.239Z,39.54
2022-07-25T08:08:45.229Z,39.50
2022-07-25T08:11:14.119Z,39.50
2022-07-25T08:13:42.915Z,39.20
2022-07-25T08:16:14.081Z,39.16
2022-07-25T08:18:43.050Z,39.40
2022-07-25T08:21:12.450Z,39.66
2022-07-25T08:23:41.343Z,39.50
2022-07-25T08:26:10.337Z,39.70
2022-07-25T08:28:39.125Z,39.80
2022-07-25T08:31:10.624Z,39.90
2022-07-25T08:33:39.775Z,39.70
2022-07-25T08:36:11.274Z,39.60
2022-07-25T08:38:40.222Z,39.60
2022-07-25T08:41:09.113Z,39.60
2022-07-25T08:43:39.790Z,39.60
2022-07-25T08:46:08.926Z,39.50
2022-07-25T08:48:39.412Z,39.30
2022-07-25T08:51:09.693Z,39.40
2022-07-25T08:53:39.376Z,39.60
2022-07-25T08:56:14.552Z,39.66
2022-07-25T08:58:46.614Z,39.50
2022-07-25T09:01:15.691Z,39.40
2022-07-25T09:03:44.702Z,39.40
2022-07-25T09:06:19.508Z,39.16
2022-07-25T09:09:00.785Z,39.04
2022-07-25T09:11:38.459Z,39.12
2022-07-25T09:14:13.146Z,39.00
2022-07-25T09:16:45.824Z,38.88
2022-07-25T09:19:16.831Z,38.60
2022-07-25T09:22:00.295Z,38.40
2022-07-25T09:24:30.088Z,38.10
2022-07-25T09:27:09.139Z,38.00
2022-07-25T09:29:42.838Z,37.70
2022-07-25T09:32:29.858Z,37.32
2022-07-25T09:34:58.647Z,37.40
2022-07-25T09:37:28.237Z,37.30
2022-07-25T09:39:57.047Z,37.16
2022-07-25T09:42:36.746Z,36.90
2022-07-25T09:45:15.741Z,36.80
2022-07-25T09:47:58.888Z,36.70
2022-07-25T09:50:31.962Z,36.50
2022-07-25T09:53:03.367Z,36.40
2022-07-25T09:55:32.482Z,36.40
2022-07-25T09:58:01.379Z,36.28
2022-07-25T10:00:32.315Z,36.42
2022-07-25T10:03:36.124Z,36.60
2022-07-25T10:06:51.096Z,36.60
2022-07-25T10:09:20.399Z,36.40
2022-07-25T10:12:11.619Z,36.10
2022-07-25T10:14:41.426Z,36.00
2022-07-25T10:17:22.219Z,36.12
2022-07-25T10:19:55.461Z,36.20
2022-07-25T10:22:56.709Z,36.20
2022-07-25T10:25:26.966Z,36.24
2022-07-25T10:28:08.604Z,36.10
2022-07-25T10:30:40.213Z,36.24
2022-07-25T10:33:14.120Z,36.30
2022-07-25T10:35:43.831Z,36.40
2022-07-25T10:38:12.825Z,36.50
2022-07-25T10:40:46.889Z,36.40
2022-07-25T10:43:20.869Z,36.20
2022-07-25T10:46:00.189Z,36.10
2022-07-25T10:48:33.642Z,36.30
2022-07-25T10:51:08.002Z,36.30
2022-07-25T10:53:47.831Z,36.40
2022-07-25T10:56:23.354Z,36.40
2022-07-25T10:58:54.490Z,36.46
2022-07-25T11:01:32.713Z,36.60
2022-07-25T11:04:14.798Z,36.52
2022-07-25T11:06:43.951Z,36.70
2022-07-25T11:09:27.409Z,36.50
2022-07-25T11:11:59.487Z,36.40
2022-07-25T11:14:34.522Z,36.40
2022-07-25T11:17:24.063Z,36.60
2022-07-25T11:20:06.584Z,36.74
2022-07-25T11:22:36.285Z,36.80
2022-07-25T11:25:16.550Z,36.80
2022-07-25T11:27:45.329Z,36.66
2022-07-25T11:30:17.672Z,36.70
2022-07-25T11:32:51.273Z,36.58
2022-07-25T11:35:28.753Z,36.48
2022-07-25T11:38:02.651Z,36.40
2022-07-25T11:40:33.237Z,36.36
2022-07-25T11:43:02.038Z,36.40
2022-07-25T11:45:34.611Z,36.50
2022-07-25T11:48:08.824Z,36.50
2022-07-25T11:50:44.736Z,36.40
2022-07-25T11:53:16.744Z,36.30
2022-07-25T11:55:45.847Z,36.30
2022-07-25T11:58:15.183Z,36.30
2022-07-25T12:00:47.921Z,36.36
2022-07-25T12:03:21.376Z,36.32
2022-07-25T12:05:51.137Z,36.30
2022-07-25T12:08:23.491Z,36.18
2022-07-25T12:10:52.504Z,36.10
2022-07-25T12:13:28.784Z,36.16
2022-07-25T12:15:59.931Z,36.30
2022-07-25T12:18:29.622Z,36.40
2022-07-25T12:20:58.412Z,36.34
2022-07-25T12:23:27.307Z,36.30
2022-07-25T12:25:56.194Z,36.10
2022-07-25T12:28:25.086Z,36.06
2022-07-25T12:30:56.718Z,36.02
2022-07-25T12:33:26.044Z,36.12
2022-07-25T12:35:55.052Z,36.30
2022-07-25T12:38:24.029Z,36.20
2022-07-25T12:40:53.536Z,36.20
2022-07-25T12:43:23.144Z,36.20
2022-07-25T12:45:52.122Z,36.28
2022-07-25T12:48:21.134Z,36.30
2022-07-25T12:50:50.127Z,36.38
2022-07-25T12:53:19.020Z,36.30
2022-07-25T12:55:47.909Z,36.32
2022-07-25T12:58:18.235Z,36.30
2022-07-25T13:00:47.195Z,36.24
2022-07-25T13:03:17.234Z,36.20
2022-07-25T13:05:46.450Z,36.00
2022-07-25T13:08:15.340Z,36.10
2022-07-25T13:10:44.229Z,36.10
2022-07-25T13:13:14.861Z,36.10
2022-07-25T13:15:43.772Z,36.00
2022-07-25T13:18:13.057Z,36.00
2022-07-25T13:20:42.049Z,36.00
2022-07-25T13:23:10.838Z,36.00
2022-07-25T13:25:39.729Z,36.10
2022-07-25T13:28:11.228Z,36.10
2022-07-25T13:30:40.482Z,36.20
2022-07-25T13:33:11.115Z,36.10
2022-07-25T13:35:40.342Z,36.00
2022-07-25T13:38:12.892Z,36.00
2022-07-25T13:40:44.855Z,36.18
2022-07-25T13:43:14.689Z,36.20
2022-07-25T13:45:43.830Z,36.20
2022-07-25T13:48:28.878Z,36.10
2022-07-25T13:50:59.988Z,36.10
2022-07-25T13:53:30.420Z,36.12
2022-07-25T13:56:00.527Z,36.20
2022-07-25T13:58:29.625Z,36.20
2022-07-25T14:00:58.796Z,36.28
2022-07-25T14:03:27.629Z,36.30
2022-07-25T14:05:56.710Z,36.30
2022-07-25T14:08:26.830Z,36.20
2022-07-25T14:10:55.686Z,36.20
2022-07-25T14:13:25.025Z,36.10
2022-07-25T14:15:53.913Z,36.20
2022-07-25T14:18:22.724Z,36.10
2022-07-25T14:20:51.905Z,36.10
2022-07-25T14:23:20.690Z,36.00
2022-07-25T14:25:49.991Z,36.10
2022-07-25T14:28:18.884Z,36.10
2022-07-25T14:30:47.774Z,36.00
2022-07-25T14:33:16.666Z,36.00
2022-07-25T14:35:45.566Z,36.00
2022-07-25T14:38:15.607Z,35.80
2022-07-25T14:40:45.902Z,35.80
2022-07-25T14:43:14.692Z,35.70
2022-07-25T14:45:43.583Z,35.70
2022-07-25T14:48:12.380Z,35.60
2022-07-25T14:50:41.263Z,35.60
2022-07-25T14:53:10.155Z,35.50
2022-07-25T14:55:39.253Z,35.40
2022-07-25T14:58:08.142Z,35.30
2022-07-25T15:00:41.431Z,35.14
2022-07-25T15:03:10.329Z,35.00
2022-07-25T15:05:39.541Z,34.90
2022-07-25T15:08:08.829Z,34.90
2022-07-25T15:10:37.931Z,34.90
2022-07-25T15:13:29.899Z,34.80
2022-07-25T15:15:56.511Z,34.70
2022-07-25T15:18:25.388Z,34.60
2022-07-25T15:20:55.629Z,34.50
2022-07-25T15:23:27.717Z,34.50
2022-07-25T15:26:02.348Z,34.50
2022-07-25T15:28:37.697Z,34.50
2022-07-25T15:31:07.406Z,34.50
2022-07-25T15:33:36.250Z,34.50
2022-07-25T15:36:06.109Z,34.50
2022-07-25T15:38:35.363Z,34.60
2022-07-25T15:41:04.255Z,34.60
2022-07-25T15:43:33.865Z,34.70
2022-07-25T15:46:02.756Z,34.80
2022-07-25T15:48:31.792Z,34.90
2022-07-25T15:51:00.949Z,35.00
2022-07-25T15:53:30.658Z,35.02
2022-07-25T15:55:59.566Z,35.02
2022-07-25T15:58:28.750Z,35.02
2022-07-25T16:00:57.623Z,35.00
2022-07-25T16:03:26.656Z,34.90
2022-07-25T16:05:57.575Z,34.80
2022-07-25T16:08:26.574Z,34.70
2022-07-25T16:10:55.461Z,34.60
2022-07-25T16:13:24.456Z,34.60
2022-07-25T16:15:53.507Z,34.56
2022-07-25T16:18:23.362Z,34.50
2022-07-25T16:20:52.156Z,34.46
2022-07-25T16:23:21.351Z,34.40
2022-07-25T16:25:52.291Z,34.30
2022-07-25T16:28:21.092Z,34.10
2022-07-25T16:30:51.485Z,34.00
2022-07-25T16:33:20.813Z,33.92
2022-07-25T16:35:49.703Z,33.90
2022-07-25T16:38:18.594Z,33.80
2022-07-25T16:40:47.485Z,33.70
2022-07-25T16:43:16.478Z,33.70
2022-07-25T16:45:45.575Z,33.60
2022-07-25T16:48:14.674Z,33.60
2022-07-25T16:50:43.669Z,33.50
2022-07-25T16:53:12.766Z,33.46
2022-07-25T16:55:41.767Z,33.38
2022-07-25T16:58:10.751Z,33.30
2022-07-25T17:00:40.461Z,33.20
2022-07-25T17:03:09.360Z,33.08
2022-07-25T17:05:38.756Z,33.00
2022-07-25T17:08:08.475Z,32.90
2022-07-25T17:10:37.564Z,32.80
2022-07-25T17:13:06.671Z,32.70
2022-07-25T17:15:36.174Z,32.62
2022-07-25T17:18:05.567Z,32.60
2022-07-25T17:20:34.460Z,32.50
2022-07-25T17:23:04.590Z,32.44
2022-07-25T17:25:34.189Z,32.40
2022-07-25T17:28:03.085Z,32.30
2022-07-25T17:30:32.077Z,32.30
2022-07-25T17:33:01.991Z,32.30
2022-07-25T17:35:31.299Z,32.20
2022-07-25T17:38:00.388Z,32.20
2022-07-25T17:40:29.484Z,32.12
2022-07-25T17:42:58.783Z,32.10
2022-07-25T17:45:28.086Z,32.10
2022-07-25T17:47:57.473Z,32.00
2022-07-25T17:50:29.510Z,32.00
2022-07-25T17:53:00.391Z,31.90
2022-07-25T17:55:29.797Z,31.90
2022-07-25T17:58:00.636Z,31.80
2022-07-25T18:00:29.834Z,31.80
2022-07-25T18:02:58.915Z,31.70
2022-07-25T18:05:28.451Z,31.70
2022-07-25T18:07:57.839Z,31.60
2022-07-25T18:10:26.938Z,31.60
2022-07-25T18:12:56.032Z,31.50
2022-07-25T18:15:25.129Z,31.50
2022-07-25T18:17:54.634Z,31.40
2022-07-25T18:20:23.526Z,31.30
2022-07-25T18:22:52.520Z,31.20
2022-07-25T18:25:21.518Z,31.20
2022-07-25T18:27:50.615Z,31.10
2022-07-25T18:30:19.708Z,31.04
2022-07-25T18:32:48.907Z,31.00
2022-07-25T18:35:18.007Z,31.00
2022-07-25T18:37:46.893Z,30.90
2022-07-25T18:40:15.793Z,30.90
2022-07-25T18:42:44.941Z,30.80
2022-07-25T18:45:14.387Z,30.70
2022-07-25T18:47:43.546Z,30.70
2022-07-25T18:50:13.092Z,30.60
2022-07-25T18:52:42.087Z,30.60
2022-07-25T18:55:11.285Z,30.60
2022-07-25T18:57:40.182Z,30.50
2022-07-25T19:00:11.175Z,30.40
2022-07-25T19:02:40.212Z,30.16
2022-07-25T19:05:09.962Z,29.78
2022-07-25T19:07:39.915Z,29.26
2022-07-25T19:10:10.467Z,28.70
2022-07-25T19:12:40.877Z,28.00
2022-07-25T19:15:10.336Z,27.32
2022-07-25T19:17:39.249Z,26.72
2022-07-25T19:20:09.773Z,26.30
2022-07-25T19:22:38.718Z,25.92
2022-07-25T19:25:08.822Z,25.66
2022-07-25T19:27:39.879Z,25.36
2022-07-25T19:30:15.294Z,25.10
2022-07-25T19:32:46.499Z,24.82
2022-07-25T19:35:15.428Z,24.70
2022-07-25T19:37:44.361Z,24.60
2022-07-25T19:40:13.966Z,24.60
2022-07-25T19:42:42.902Z,24.60
2022-07-25T19:45:11.954Z,24.54
2022-07-25T19:47:40.845Z,24.40
2022-07-25T19:50:11.374Z,24.28
2022-07-25T19:52:40.266Z,24.20
2022-07-25T19:55:10.434Z,24.20
2022-07-25T19:57:39.217Z,24.20
2022-07-25T20:00:08.969Z,24.10
2022-07-25T20:02:42.115Z,24.10
2022-07-25T20:05:12.670Z,24.00
2022-07-25T20:07:41.601Z,23.90
2022-07-25T20:10:11.284Z,23.78
2022-07-25T20:12:42.355Z,23.70
2022-07-25T20:15:11.352Z,23.60
2022-07-25T20:17:40.467Z,23.58
2022-07-25T20:20:10.535Z,23.50
2022-07-25T20:22:39.626Z,23.60
2022-07-25T20:25:12.026Z,23.60
2022-07-25T20:27:41.132Z,23.62
2022-07-25T20:30:11.942Z,23.70
2022-07-25T20:32:40.862Z,23.80
2022-07-25T20:35:09.959Z,23.90
2022-07-25T20:37:39.361Z,23.90
2022-07-25T20:40:10.042Z,23.90
2022-07-25T20:42:39.337Z,23.80
2022-07-25T20:45:09.556Z,23.72
2022-07-25T20:47:38.542Z,23.70
2022-07-25T20:50:09.805Z,23.80
2022-07-25T20:52:39.144Z,23.62
2022-07-25T20:55:09.338Z,23.60
2022-07-25T20:57:38.176Z,23.60
2022-07-25T21:00:08.186Z,23.50
2022-07-25T21:02:37.077Z,23.50
2022-07-25T21:05:06.944Z,23.50
2022-07-25T21:07:35.894Z,23.50
2022-07-25T21:10:05.907Z,23.40
2022-07-25T21:12:34.779Z,23.30
2022-07-25T21:15:04.952Z,23.30
2022-07-25T21:17:34.765Z,23.30
2022-07-25T21:20:06.325Z,23.30
2022-07-25T21:22:35.503Z,23.24
2022-07-25T21:25:06.008Z,23.20
2022-07-25T21:27:37.207Z,23.10
2022-07-25T21:30:09.451Z,23.20
2022-07-25T21:32:39.829Z,23.30
2022-07-25T21:35:09.593Z,23.30
2022-07-25T21:37:38.835Z,23.24
2022-07-25T21:40:09.215Z,23.20
2022-07-25T21:42:38.091Z,23.20
2022-07-25T21:45:08.104Z,23.26
2022-07-25T21:47:37.111Z,23.30
2022-07-25T21:50:26.375Z,23.30
2022-07-25T21:52:55.654Z,23.40
2022-07-25T21:55:24.970Z,23.40
2022-07-25T21:57:53.870Z,23.40
2022-07-25T22:00:23.048Z,23.40
2022-07-25T22:03:10.807Z,23.42
2022-07-25T22:05:40.105Z,23.50
2022-07-25T22:08:09.206Z,23.50
2022-07-25T22:10:38.302Z,23.50
2022-07-25T22:13:10.675Z,23.60
2022-07-25T22:15:41.333Z,23.52
2022-07-25T22:18:10.946Z,23.56
2022-07-25T22:20:40.360Z,23.40
2022-07-25T22:23:09.518Z,23.16
2022-07-25T22:25:38.615Z,22.90
2022-07-25T22:28:08.163Z,22.80
2022-07-25T22:30:43.462Z,22.62
2022-07-25T22:33:12.968Z,22.60
2022-07-25T22:35:42.167Z,22.60
2022-07-25T22:38:11.573Z,22.68
2022-07-25T22:40:40.873Z,22.70
2022-07-25T22:43:10.074Z,22.70
2022-07-25T22:45:42.886Z,22.70
2022-07-25T22:48:12.592Z,22.70
2022-07-25T22:50:41.766Z,22.70
2022-07-25T22:53:10.861Z,22.80
2022-07-25T22:55:40.278Z,22.80
2022-07-25T22:58:09.360Z,22.80
2022-07-25T23:00:38.770Z,22.80
2022-07-25T23:03:08.034Z,22.70
2022-07-25T23:05:40.468Z,22.60
2022-07-25T23:08:09.945Z,22.50
2022-07-25T23:10:39.144Z,22.60
2022-07-25T23:13:08.239Z,22.60
2022-07-25T23:15:49.324Z,22.50
2022-07-25T23:18:20.564Z,22.40
2022-07-25T23:20:49.659Z,22.30
2022-07-25T23:23:18.859Z,22.22
2022-07-25T23:25:48.058Z,22.14
2022-07-25T23:28:17.154Z,22.10
2022-07-25T23:30:46.456Z,22.10
2022-07-25T23:33:15.555Z,22.00
2022-07-25T23:35:44.658Z,22.00
2022-07-25T23:38:14.759Z,21.92
2022-07-25T23:40:43.550Z,21.90
2022-07-25T23:43:12.508Z,21.80
2022-07-25T23:45:49.939Z,21.70
2022-07-25T23:48:20.165Z,21.60
2022-07-25T23:50:49.262Z,21.60
2022-07-25T23:53:18.463Z,21.50
2022-07-25T23:55:47.556Z,21.40
2022-07-25T23:58:16.540Z,21.40
